createdAt,value
2018-04-04T00:00:59.334Z,993.75
2018-04-04T00:01:59.330Z,993.91
2018-04-04T00:02:59.333Z,993.75
2018-04-04T00:03:59.311Z,993.79
2018-04-04T00:04:59.309Z,993.71
2018-04-04T00:05:59.298Z,993.79
2018-04-04T00:06:59.289Z,993.74
2018-04-04T00:07:59.296Z,993.74
2018-04-04T00:08:59.285Z,993.75
2018-04-04T00:09:59.267Z,993.73
2018-04-04T00:10:59.262Z,993.86
2018-04-04T00:11:59.253Z,993.84
2018-04-04T00:12:59.257Z,993.90
2018-04-04T00:13:59.249Z,993.84
2018-04-04T00:14:59.242Z,994.04
2018-04-04T00:15:59.223Z,993.95
2018-04-04T00:16:59.223Z,993.91
2018-04-04T00:17:59.209Z,994.01
2018-04-04T00:18:59.201Z,993.92
2018-04-04T00:19:59.195Z,994.02
2018-04-04T00:20:59.196Z,993.99
2018-04-04T00:21:59.192Z,993.91
2018-04-04T00:22:59.170Z,994.02
2018-04-04T00:23:59.175Z,994.18
2018-04-04T00:24:59.174Z,994.22
2018-04-04T00:25:59.161Z,994.14
2018-04-04T00:26:59.151Z,994.05
2018-04-04T00:27:59.147Z,994.19
2018-04-04T00:28:59.127Z,994.08
2018-04-04T00:29:59.119Z,994.30
2018-04-04T00:30:59.122Z,994.34
2018-04-04T00:31:59.117Z,994.38
2018-04-04T00:32:59.132Z,994.34
2018-04-04T00:33:59.100Z,994.45
2018-04-04T00:34:59.081Z,994.50
2018-04-04T00:35:59.074Z,994.49
2018-04-04T00:36:59.064Z,994.34
2018-04-04T00:37:59.069Z,994.44
2018-04-04T00:38:59.061Z,994.51
2018-04-04T00:39:59.046Z,994.54
2018-04-04T00:40:59.045Z,994.60
2018-04-04T00:41:59.038Z,994.72
2018-04-04T00:42:59.020Z,994.65
2018-04-04T00:43:59.013Z,994.61
2018-04-04T00:44:59.005Z,994.63
2018-04-04T00:45:58.998Z,994.67
2018-04-04T00:46:58.990Z,994.71
2018-04-04T00:47:58.996Z,994.71
2018-04-04T00:48:58.973Z,994.74
2018-04-04T00:49:58.964Z,994.76
2018-04-04T00:50:58.959Z,994.70
2018-04-04T00:51:58.949Z,994.78
2018-04-04T00:52:58.949Z,994.76
2018-04-04T00:53:58.938Z,994.79
2018-04-04T00:54:58.937Z,994.92
2018-04-04T00:55:58.920Z,994.85
2018-04-04T00:56:58.922Z,994.86
2018-04-04T00:57:58.913Z,994.84
2018-04-04T00:58:58.907Z,994.70
2018-04-04T00:59:58.894Z,994.92
2018-04-04T01:00:58.897Z,994.97
2018-04-04T01:01:58.884Z,994.95
2018-04-04T01:02:58.881Z,994.93
2018-04-04T01:03:58.858Z,994.98
2018-04-04T01:04:58.862Z,994.99
2018-04-04T01:05:58.843Z,995.03
2018-04-04T01:06:58.835Z,995.14
2018-04-04T01:07:58.837Z,995.06
2018-04-04T01:08:58.819Z,995.04
2018-04-04T01:09:58.822Z,995.04
2018-04-04T01:10:58.808Z,995.03
2018-04-04T01:11:58.807Z,995.11
2018-04-04T01:12:58.787Z,995.08
2018-04-04T01:13:58.779Z,995.11
2018-04-04T01:14:58.783Z,995.13
2018-04-04T01:15:58.778Z,995.06
2018-04-04T01:16:58.755Z,995.11
2018-04-04T01:17:58.762Z,995.09
2018-04-04T01:18:58.766Z,995.08
2018-04-04T01:19:58.733Z,995.04
2018-04-04T01:20:58.735Z,995.05
2018-04-04T01:21:58.732Z,995.12
2018-04-04T01:22:58.720Z,995.15
2018-04-04T01:23:58.702Z,995.23
2018-04-04T01:24:58.690Z,995.21
2018-04-04T01:25:58.697Z,995.16
2018-04-04T01:26:58.680Z,995.17
2018-04-04T01:27:58.670Z,995.21
2018-04-04T01:28:58.677Z,995.23
2018-04-04T01:29:58.678Z,995.21
2018-04-04T01:30:58.657Z,995.24
2018-04-04T01:31:58.640Z,995.28
2018-04-04T01:32:58.629Z,995.29
2018-04-04T01:33:58.621Z,995.24
2018-04-04T01:34:58.609Z,995.27
2018-04-04T01:35:58.601Z,995.30
2018-04-04T01:36:58.596Z,995.33
2018-04-04T01:37:58.585Z,995.33
2018-04-04T01:38:58.576Z,995.36
2018-04-04T01:39:58.568Z,995.35
2018-04-04T01:40:58.561Z,995.39
2018-04-04T01:41:58.548Z,995.38
2018-04-04T01:42:58.543Z,995.46
2018-04-04T01:43:58.545Z,995.43
2018-04-04T01:44:58.530Z,995.41
2018-04-04T01:45:58.526Z,995.42
2018-04-04T01:46:58.512Z,995.40
2018-04-04T01:47:58.507Z,995.40
2018-04-04T01:48:58.494Z,995.42
2018-04-04T01:49:58.490Z,995.43
2018-04-04T01:50:58.486Z,995.43
2018-04-04T01:51:58.480Z,995.41
2018-04-04T01:52:58.467Z,995.42
2018-04-04T01:53:58.460Z,995.42
2018-04-04T01:54:58.454Z,995.43
2018-04-04T01:55:58.451Z,995.43
2018-04-04T01:56:58.433Z,995.44
2018-04-04T01:57:58.429Z,995.43
2018-04-04T01:58:58.420Z,995.43
2018-04-04T01:59:58.412Z,995.45
2018-04-04T02:00:58.402Z,995.46
2018-04-04T02:01:58.391Z,995.43
2018-04-04T02:02:58.385Z,995.47
2018-04-04T02:03:58.376Z,995.45
2018-04-04T02:04:58.368Z,995.51
2018-04-04T02:05:58.364Z,995.53
2018-04-04T02:06:58.359Z,995.56
2018-04-04T02:07:58.350Z,995.58
2018-04-04T02:08:58.336Z,995.57
2018-04-04T02:09:58.330Z,995.56
2018-04-04T02:10:58.320Z,995.50
2018-04-04T02:11:58.317Z,995.52
2018-04-04T02:12:58.311Z,995.46
2018-04-04T02:13:58.305Z,995.44
2018-04-04T02:14:58.290Z,995.47
2018-04-04T02:15:58.284Z,995.45
2018-04-04T02:16:58.275Z,995.43
2018-04-04T02:17:58.269Z,995.40
2018-04-04T02:18:58.264Z,995.41
2018-04-04T02:19:58.254Z,995.41
2018-04-04T02:20:58.245Z,995.43
2018-04-04T02:21:58.240Z,995.44
2018-04-04T02:22:58.225Z,995.46
2018-04-04T02:23:58.220Z,995.46
2018-04-04T02:24:58.211Z,995.52
2018-04-04T02:25:58.208Z,995.49
2018-04-04T02:26:58.202Z,995.52
2018-04-04T02:27:58.197Z,995.56
2018-04-04T02:28:58.186Z,995.53
2018-04-04T02:29:58.168Z,995.57
2018-04-04T02:30:58.164Z,995.59
2018-04-04T02:31:58.171Z,995.57
2018-04-04T02:32:58.156Z,995.62
2018-04-04T02:33:58.145Z,995.61
2018-04-04T02:34:58.136Z,995.68
2018-04-04T02:35:58.132Z,995.72
2018-04-04T02:36:58.117Z,995.75
2018-04-04T02:37:58.106Z,995.69
2018-04-04T02:38:58.102Z,995.71
2018-04-04T02:39:58.099Z,995.67
2018-04-04T02:40:58.086Z,995.67
2018-04-04T02:41:58.084Z,995.66
2018-04-04T02:42:58.071Z,995.68
2018-04-04T02:43:58.062Z,995.70
2018-04-04T02:44:58.050Z,995.76
2018-04-04T02:45:58.042Z,995.72
2018-04-04T02:46:58.044Z,995.75
2018-04-04T02:47:58.031Z,995.75
2018-04-04T02:48:58.020Z,995.75
2018-04-04T02:49:58.013Z,995.81
2018-04-04T02:50:58.002Z,995.77
2018-04-04T02:51:58.003Z,995.87
2018-04-04T02:52:57.988Z,995.82
2018-04-04T02:53:57.982Z,995.83
2018-04-04T02:54:57.973Z,995.83
2018-04-04T02:55:57.967Z,995.85
2018-04-04T02:56:57.958Z,995.84
2018-04-04T02:57:57.944Z,995.86
2018-04-04T02:58:57.938Z,995.84
2018-04-04T02:59:57.930Z,995.89
2018-04-04T03:00:57.932Z,995.90
2018-04-04T03:01:57.918Z,995.90
2018-04-04T03:02:57.912Z,995.89
2018-04-04T03:03:57.900Z,995.94
2018-04-04T03:04:57.887Z,995.94
2018-04-04T03:05:57.882Z,995.98
2018-04-04T03:06:57.872Z,996.00
2018-04-04T03:07:57.869Z,996.04
2018-04-04T03:08:57.859Z,996.01
2018-04-04T03:09:57.849Z,996.07
2018-04-04T03:10:57.838Z,996.04
2018-04-04T03:11:57.832Z,996.03
2018-04-04T03:12:57.824Z,996.04
2018-04-04T03:13:57.819Z,996.05
2018-04-04T03:14:57.810Z,996.02
2018-04-04T03:15:57.810Z,996.05
2018-04-04T03:16:57.794Z,996.05
2018-04-04T03:17:57.783Z,996.07
2018-04-04T03:18:57.774Z,996.05
2018-04-04T03:19:57.765Z,996.05
2018-04-04T03:20:57.755Z,996.07
2018-04-04T03:21:57.754Z,996.06
2018-04-04T03:22:57.744Z,996.11
2018-04-04T03:23:57.736Z,996.11
2018-04-04T03:24:57.722Z,996.16
2018-04-04T03:25:57.715Z,996.17
2018-04-04T03:26:57.709Z,996.15
2018-04-04T03:27:57.705Z,996.17
2018-04-04T03:28:57.697Z,996.18
2018-04-04T03:29:57.689Z,996.19
2018-04-04T03:30:57.677Z,996.16
2018-04-04T03:31:57.663Z,996.13
2018-04-04T03:32:57.658Z,996.13
2018-04-04T03:33:57.649Z,996.11
2018-04-04T03:34:57.645Z,996.12
2018-04-04T03:35:57.636Z,996.10
2018-04-04T03:36:57.626Z,996.08
2018-04-04T03:37:57.617Z,996.06
2018-04-04T03:38:57.608Z,996.05
2018-04-04T03:39:57.599Z,996.04
2018-04-04T03:40:57.589Z,996.03
2018-04-04T03:41:57.585Z,996.05
2018-04-04T03:42:57.578Z,995.97
2018-04-04T03:43:57.569Z,995.98
2018-04-04T03:44:57.557Z,996.01
2018-04-04T03:45:57.551Z,996.01
2018-04-04T03:46:57.554Z,995.98
2018-04-04T03:47:57.532Z,995.98
2018-04-04T03:48:57.532Z,995.99
2018-04-04T03:49:57.518Z,996.03
2018-04-04T03:50:57.510Z,996.02
2018-04-04T03:51:57.496Z,996.03
2018-04-04T03:52:57.491Z,996.04
2018-04-04T03:53:57.482Z,995.99
2018-04-04T03:54:57.473Z,995.99
2018-04-04T03:55:57.467Z,995.97
2018-04-04T03:56:57.459Z,995.99
2018-04-04T03:57:57.452Z,995.98
2018-04-04T03:58:57.438Z,996.01
2018-04-04T03:59:57.430Z,995.95
2018-04-04T04:00:57.425Z,995.96
2018-04-04T04:01:57.417Z,995.97
2018-04-04T04:02:57.405Z,995.98
2018-04-04T04:03:57.400Z,995.97
2018-04-04T04:04:57.390Z,995.92
2018-04-04T04:05:57.379Z,995.91
2018-04-04T04:06:57.371Z,995.88
2018-04-04T04:07:57.362Z,995.84
2018-04-04T04:08:57.353Z,995.86
2018-04-04T04:09:57.348Z,995.85
2018-04-04T04:10:57.338Z,995.86
2018-04-04T04:11:57.337Z,995.91
2018-04-04T04:12:57.320Z,995.89
2018-04-04T04:13:57.309Z,995.86
2018-04-04T04:14:57.303Z,995.82
2018-04-04T04:15:57.293Z,995.86
2018-04-04T04:16:57.286Z,995.88
2018-04-04T04:17:57.276Z,995.87
2018-04-04T04:18:57.269Z,995.85
2018-04-04T04:19:57.260Z,995.87
2018-04-04T04:20:57.251Z,995.80
2018-04-04T04:21:57.241Z,995.80
2018-04-04T04:22:57.233Z,995.79
2018-04-04T04:23:57.226Z,995.79
2018-04-04T04:24:57.215Z,995.75
2018-04-04T04:25:57.204Z,995.76
2018-04-04T04:26:57.210Z,995.76
2018-04-04T04:27:57.199Z,995.72
2018-04-04T04:28:57.180Z,995.73
2018-04-04T04:29:57.177Z,995.76
2018-04-04T04:30:57.164Z,995.78
2018-04-04T04:31:57.156Z,995.74
2018-04-04T04:32:57.149Z,995.73
2018-04-04T04:33:57.136Z,995.78
2018-04-04T04:34:57.125Z,995.78
2018-04-04T04:35:57.120Z,995.80
2018-04-04T04:36:57.112Z,995.78
2018-04-04T04:37:57.104Z,995.80
2018-04-04T04:38:57.094Z,995.81
2018-04-04T04:39:57.086Z,995.79
2018-04-04T04:40:57.076Z,995.80
2018-04-04T04:41:57.066Z,995.78
2018-04-04T04:42:57.060Z,995.83
2018-04-04T04:43:57.056Z,995.83
2018-04-04T04:44:57.041Z,995.87
2018-04-04T04:45:57.034Z,995.82
2018-04-04T04:46:57.026Z,995.79
2018-04-04T04:47:57.013Z,995.79
2018-04-04T04:48:57.005Z,995.82
2018-04-04T04:49:56.998Z,995.82
2018-04-04T04:50:57.613Z,995.79
2018-04-04T04:51:56.980Z,995.79
2018-04-04T04:52:56.973Z,995.77
2018-04-04T04:53:56.961Z,995.75
2018-04-04T04:54:56.951Z,995.74
2018-04-04T04:55:56.945Z,995.76
2018-04-04T04:56:56.940Z,995.72
2018-04-04T04:57:56.926Z,995.71
2018-04-04T04:58:56.921Z,995.69
2018-04-04T04:59:56.916Z,995.63
2018-04-04T05:00:56.900Z,995.58
2018-04-04T05:01:56.892Z,995.56
2018-04-04T05:02:56.882Z,995.59
2018-04-04T05:03:56.875Z,995.57
2018-04-04T05:04:56.866Z,995.57
2018-04-04T05:05:56.855Z,995.54
2018-04-04T05:06:56.849Z,995.54
2018-04-04T05:07:56.836Z,995.58
2018-04-04T05:08:56.833Z,995.62
2018-04-04T05:09:56.822Z,995.61
2018-04-04T05:10:56.814Z,995.61
2018-04-04T05:11:56.804Z,995.63
2018-04-04T05:12:56.797Z,995.65
2018-04-04T05:13:56.789Z,995.67
2018-04-04T05:14:56.776Z,995.67
2018-04-04T05:15:56.771Z,995.69
2018-04-04T05:16:56.760Z,995.72
2018-04-04T05:17:56.751Z,995.73
2018-04-04T05:18:56.747Z,995.69
2018-04-04T05:19:56.733Z,995.69
2018-04-04T05:20:56.726Z,995.67
2018-04-04T05:21:56.715Z,995.65
2018-04-04T05:22:56.707Z,995.69
2018-04-04T05:23:56.700Z,995.75
2018-04-04T05:24:56.691Z,995.75
2018-04-04T05:25:56.681Z,995.80
2018-04-04T05:26:56.678Z,995.82
2018-04-04T05:27:56.670Z,995.80
2018-04-04T05:28:56.652Z,995.83
2018-04-04T05:29:56.644Z,995.80
2018-04-04T05:30:56.636Z,995.87
2018-04-04T05:31:56.630Z,995.84
2018-04-04T05:32:56.619Z,995.83
2018-04-04T05:33:56.611Z,995.88
2018-04-04T05:34:56.603Z,995.87
2018-04-04T05:35:56.594Z,995.91
2018-04-04T05:36:56.580Z,995.90
2018-04-04T05:37:56.575Z,995.94
2018-04-04T05:38:56.567Z,995.89
2018-04-04T05:39:56.560Z,995.91
2018-04-04T05:40:56.552Z,995.95
2018-04-04T05:41:56.543Z,995.95
2018-04-04T05:42:56.567Z,995.94
2018-04-04T05:43:56.522Z,995.88
2018-04-04T05:44:56.512Z,995.85
2018-04-04T05:45:56.583Z,995.85
2018-04-04T05:46:56.499Z,995.83
2018-04-04T05:47:56.498Z,995.84
2018-04-04T05:48:56.483Z,995.82
2018-04-04T05:49:56.472Z,995.82
2018-04-04T05:50:56.470Z,995.81
2018-04-04T05:51:56.454Z,995.82
2018-04-04T05:52:56.488Z,995.79
2018-04-04T05:53:56.439Z,995.76
2018-04-04T05:54:56.433Z,995.78
2018-04-04T05:55:56.424Z,995.78
2018-04-04T05:56:56.414Z,995.83
2018-04-04T05:57:56.406Z,995.81
2018-04-04T05:58:56.393Z,995.81
2018-04-04T05:59:56.391Z,995.78
2018-04-04T06:00:56.381Z,995.76
2018-04-04T06:01:56.373Z,995.76
2018-04-04T06:02:56.368Z,995.77
2018-04-04T06:03:56.354Z,995.75
2018-04-04T06:04:56.344Z,995.74
2018-04-04T06:05:56.337Z,995.77
2018-04-04T06:06:56.336Z,995.81
2018-04-04T06:07:56.325Z,995.80
2018-04-04T06:08:56.315Z,995.86
2018-04-04T06:09:56.307Z,995.90
2018-04-04T06:10:56.300Z,995.90
2018-04-04T06:11:56.290Z,995.94
2018-04-04T06:12:56.281Z,995.94
2018-04-04T06:13:56.296Z,995.93
2018-04-04T06:14:56.270Z,995.98
2018-04-04T06:15:56.269Z,995.97
2018-04-04T06:16:56.250Z,995.97
2018-04-04T06:17:56.245Z,995.96
2018-04-04T06:18:56.236Z,995.89
2018-04-04T06:19:56.227Z,995.88
2018-04-04T06:20:56.228Z,995.80
2018-04-04T06:21:56.214Z,995.76
2018-04-04T06:22:56.205Z,995.75
2018-04-04T06:23:56.198Z,995.74
2018-04-04T06:24:56.187Z,995.75
2018-04-04T06:25:56.198Z,995.77
2018-04-04T06:26:56.185Z,995.81
2018-04-04T06:27:56.169Z,995.87
2018-04-04T06:28:56.206Z,995.83
2018-04-04T06:29:56.150Z,995.87
2018-04-04T06:30:56.145Z,995.92
2018-04-04T06:31:56.141Z,995.83
2018-04-04T06:32:56.124Z,995.78
2018-04-04T06:33:56.115Z,995.81
2018-04-04T06:34:56.121Z,995.83
2018-04-04T06:35:56.108Z,995.81
2018-04-04T06:36:56.098Z,995.79
2018-04-04T06:37:56.094Z,995.79
2018-04-04T06:38:56.081Z,995.72
2018-04-04T06:39:56.072Z,995.74
2018-04-04T06:40:56.065Z,995.75
2018-04-04T06:41:56.060Z,995.69
2018-04-04T06:42:56.053Z,995.66
2018-04-04T06:43:56.046Z,995.65
2018-04-04T06:44:56.039Z,995.60
2018-04-04T06:45:56.029Z,995.61
2018-04-04T06:46:56.018Z,995.66
2018-04-04T06:47:56.011Z,995.65
2018-04-04T06:48:56.012Z,995.67
2018-04-04T06:49:56.045Z,995.61
2018-04-04T06:50:55.997Z,995.60
2018-04-04T06:51:55.985Z,995.63
2018-04-04T06:52:55.981Z,995.61
2018-04-04T06:53:55.966Z,995.63
2018-04-04T06:54:55.962Z,995.65
2018-04-04T06:55:56.006Z,995.62
2018-04-04T06:56:55.948Z,995.62
2018-04-04T06:57:55.940Z,995.66
2018-04-04T06:58:55.932Z,995.67
2018-04-04T06:59:55.922Z,995.71
2018-04-04T07:00:55.917Z,995.67
2018-04-04T07:01:55.936Z,995.70
2018-04-04T07:02:55.929Z,995.66
2018-04-04T07:03:55.899Z,995.65
2018-04-04T07:04:55.886Z,995.66
2018-04-04T07:05:55.887Z,995.63
2018-04-04T07:06:55.870Z,995.59
2018-04-04T07:07:55.866Z,995.59
2018-04-04T07:08:55.856Z,995.61
2018-04-04T07:09:55.847Z,995.60
2018-04-04T07:10:55.845Z,995.62
2018-04-04T07:11:55.838Z,995.59
2018-04-04T07:12:55.832Z,995.60
2018-04-04T07:13:55.826Z,995.60
2018-04-04T07:14:55.818Z,995.58
2018-04-04T07:15:55.808Z,995.54
2018-04-04T07:16:55.802Z,995.47
2018-04-04T07:17:55.796Z,995.52
2018-04-04T07:18:55.788Z,995.47
2018-04-04T07:19:55.782Z,995.53
2018-04-04T07:20:55.768Z,995.58
2018-04-04T07:21:55.763Z,995.61
2018-04-04T07:22:55.757Z,995.63
2018-04-04T07:23:55.750Z,995.63
2018-04-04T07:24:55.743Z,995.64
2018-04-04T07:25:55.736Z,995.68
2018-04-04T07:26:55.730Z,995.64
2018-04-04T07:27:55.720Z,995.72
2018-04-04T07:28:55.713Z,995.65
2018-04-04T07:29:55.707Z,995.68
2018-04-04T07:30:55.698Z,995.66
2018-04-04T07:31:55.697Z,995.65
2018-04-04T07:32:55.686Z,995.63
2018-04-04T07:33:55.680Z,995.58
2018-04-04T07:34:55.669Z,995.64
2018-04-04T07:35:55.663Z,995.66
2018-04-04T07:36:55.659Z,995.65
2018-04-04T07:37:55.651Z,995.63
2018-04-04T07:38:55.647Z,995.63
2018-04-04T07:39:55.638Z,995.66
2018-04-04T07:40:55.628Z,995.61
2018-04-04T07:41:55.622Z,995.61
2018-04-04T07:42:55.614Z,995.60
2018-04-04T07:43:55.608Z,995.58
2018-04-04T07:44:55.606Z,995.57
2018-04-04T07:45:55.595Z,995.57
2018-04-04T07:46:55.589Z,995.55
2018-04-04T07:47:55.584Z,995.57
2018-04-04T07:48:55.571Z,995.58
2018-04-04T07:49:55.563Z,995.58
2018-04-04T07:50:55.559Z,995.58
2018-04-04T07:51:55.565Z,995.49
2018-04-04T07:52:55.552Z,995.55
2018-04-04T07:53:55.558Z,995.56
2018-04-04T07:54:55.535Z,995.54
2018-04-04T07:55:55.525Z,995.57
2018-04-04T07:56:55.516Z,995.52
2018-04-04T07:57:55.509Z,995.55
2018-04-04T07:58:55.503Z,995.61
2018-04-04T07:59:55.501Z,995.67
2018-04-04T08:00:55.492Z,995.66
2018-04-04T08:01:55.492Z,995.67
2018-04-04T08:02:55.478Z,995.67
2018-04-04T08:03:55.471Z,995.66
2018-04-04T08:04:55.462Z,995.66
2018-04-04T08:05:55.461Z,995.64
2018-04-04T08:06:55.453Z,995.68
2018-04-04T08:07:55.449Z,995.68
2018-04-04T08:08:55.439Z,995.72
2018-04-04T08:09:55.430Z,995.60
2018-04-04T08:10:55.429Z,995.59
2018-04-04T08:11:55.415Z,995.61
2018-04-04T08:12:55.410Z,995.65
2018-04-04T08:13:55.407Z,995.63
2018-04-04T08:14:55.401Z,995.64
2018-04-04T08:15:55.394Z,995.63
2018-04-04T08:16:55.383Z,995.61
2018-04-04T08:17:55.378Z,995.60
2018-04-04T08:18:55.371Z,995.59
2018-04-04T08:19:55.422Z,995.65
2018-04-04T08:20:55.362Z,995.63
2018-04-04T08:21:55.360Z,995.64
2018-04-04T08:22:55.356Z,995.56
2018-04-04T08:23:55.339Z,995.59
2018-04-04T08:24:55.336Z,995.59
2018-04-04T08:25:55.329Z,995.64
2018-04-04T08:26:55.329Z,995.56
2018-04-04T08:27:55.325Z,995.56
2018-04-04T08:28:55.312Z,995.59
2018-04-04T08:29:55.306Z,995.52
2018-04-04T08:30:55.299Z,995.53
2018-04-04T08:31:55.289Z,995.53
2018-04-04T08:32:55.285Z,995.50
2018-04-04T08:33:55.277Z,995.54
2018-04-04T08:34:55.284Z,995.51
2018-04-04T08:35:55.270Z,995.48
2018-04-04T08:36:55.265Z,995.56
2018-04-04T08:37:55.255Z,995.54
2018-04-04T08:38:55.249Z,995.54
2018-04-04T08:39:55.239Z,995.61
2018-04-04T08:40:55.238Z,995.56
2018-04-04T08:41:55.234Z,995.52
2018-04-04T08:42:55.248Z,995.61
2018-04-04T08:43:55.220Z,995.51
2018-04-04T08:44:55.210Z,995.73
2018-04-04T08:45:55.208Z,995.55
2018-04-04T08:46:55.197Z,995.48
2018-04-04T08:47:55.194Z,995.55
2018-04-04T08:48:55.193Z,995.47
2018-04-04T08:49:55.182Z,995.46
2018-04-04T08:50:55.174Z,995.58
2018-04-04T08:51:55.169Z,995.51
2018-04-04T08:52:55.161Z,995.63
2018-04-04T08:53:55.154Z,995.55
2018-04-04T08:54:55.151Z,995.48
2018-04-04T08:55:55.146Z,995.55
2018-04-04T08:56:55.142Z,995.51
2018-04-04T08:57:55.138Z,995.54
2018-04-04T08:58:55.126Z,995.60
2018-04-04T08:59:55.129Z,995.51
2018-04-04T09:00:55.115Z,995.51
2018-04-04T09:01:55.112Z,995.52
2018-04-04T09:02:55.102Z,995.52
2018-04-04T09:03:55.096Z,995.52
2018-04-04T09:04:55.090Z,995.52
2018-04-04T09:05:55.084Z,995.47
2018-04-04T09:06:55.080Z,995.48
2018-04-04T09:07:55.079Z,995.51
2018-04-04T09:08:55.070Z,995.51
2018-04-04T09:09:55.067Z,995.44
2018-04-04T09:10:55.059Z,995.54
2018-04-04T09:11:55.054Z,995.52
2018-04-04T09:12:55.042Z,995.47
2018-04-04T09:13:55.039Z,995.51
2018-04-04T09:14:55.032Z,995.40
2018-04-04T09:15:55.032Z,995.46
2018-04-04T09:16:55.025Z,995.40
2018-04-04T09:17:55.016Z,995.47
2018-04-04T09:18:55.013Z,995.33
2018-04-04T09:19:55.004Z,995.35
2018-04-04T09:20:54.998Z,995.37
2018-04-04T09:21:54.995Z,995.33
2018-04-04T09:22:54.989Z,995.37
2018-04-04T09:23:54.991Z,995.38
2018-04-04T09:24:54.980Z,995.29
2018-04-04T09:25:54.973Z,995.26
2018-04-04T09:26:54.964Z,995.26
2018-04-04T09:27:54.965Z,995.31
2018-04-04T09:28:54.964Z,995.29
2018-04-04T09:29:54.962Z,995.25
2018-04-04T09:30:55.009Z,995.29
2018-04-04T09:31:54.949Z,995.24
2018-04-04T09:32:54.938Z,995.22
2018-04-04T09:33:54.937Z,995.24
2018-04-04T09:34:54.944Z,995.23
2018-04-04T09:35:54.930Z,995.23
2018-04-04T09:36:54.926Z,995.27
2018-04-04T09:37:54.922Z,995.30
2018-04-04T09:38:54.920Z,995.16
2018-04-04T09:39:54.910Z,995.34
2018-04-04T09:40:54.956Z,995.23
2018-04-04T09:41:54.910Z,995.11
2018-04-04T09:42:54.906Z,995.13
2018-04-04T09:43:54.903Z,995.16
2018-04-04T09:44:54.894Z,995.16
2018-04-04T09:45:54.890Z,995.08
2018-04-04T09:46:54.888Z,995.04
2018-04-04T09:47:54.886Z,995.12
2018-04-04T09:48:54.882Z,995.12
2018-04-04T09:49:54.878Z,995.12
2018-04-04T09:50:54.874Z,995.22
2018-04-04T09:51:54.875Z,995.14
2018-04-04T09:52:54.868Z,995.08
2018-04-04T09:53:54.858Z,995.15
2018-04-04T09:54:54.856Z,995.14
2018-04-04T09:55:54.853Z,995.15
2018-04-04T09:56:54.849Z,995.14
2018-04-04T09:57:54.844Z,995.04
2018-04-04T09:58:54.839Z,995.02
2018-04-04T09:59:54.829Z,995.00
2018-04-04T10:00:54.828Z,994.94
2018-04-04T10:01:54.823Z,994.96
2018-04-04T10:02:54.821Z,994.93
2018-04-04T10:03:54.815Z,994.92
2018-04-04T10:04:54.816Z,994.90
2018-04-04T10:05:54.800Z,994.94
2018-04-04T10:06:54.799Z,994.90
2018-04-04T10:07:54.796Z,994.88
2018-04-04T10:08:54.796Z,994.85
2018-04-04T10:09:54.789Z,994.80
2018-04-04T10:10:54.781Z,994.84
2018-04-04T10:11:54.777Z,994.82
2018-04-04T10:12:54.769Z,994.79
2018-04-04T10:13:54.764Z,994.74
2018-04-04T10:14:54.760Z,994.71
2018-04-04T10:15:54.758Z,994.77
2018-04-04T10:16:54.752Z,994.67
2018-04-04T10:17:54.750Z,994.70
2018-04-04T10:18:54.746Z,994.64
2018-04-04T10:19:54.741Z,994.66
2018-04-04T10:20:54.730Z,994.61
2018-04-04T10:21:54.728Z,994.61
2018-04-04T10:22:54.727Z,994.65
2018-04-04T10:23:54.721Z,994.59
2018-04-04T10:24:54.724Z,994.66
2018-04-04T10:25:54.713Z,994.56
2018-04-04T10:26:54.713Z,994.60
2018-04-04T10:27:54.703Z,994.70
2018-04-04T10:28:54.699Z,994.58
2018-04-04T10:29:54.700Z,994.50
2018-04-04T10:30:54.694Z,994.52
2018-04-04T10:31:54.695Z,994.50
2018-04-04T10:32:54.689Z,994.43
2018-04-04T10:33:54.680Z,994.44
2018-04-04T10:34:54.683Z,994.52
2018-04-04T10:35:54.675Z,994.51
2018-04-04T10:36:54.678Z,994.52
2018-04-04T10:37:54.677Z,994.48
2018-04-04T10:38:54.679Z,994.49
2018-04-04T10:39:54.666Z,994.56
2018-04-04T10:40:54.665Z,994.56
2018-04-04T10:41:54.665Z,994.57
2018-04-04T10:42:54.660Z,994.54
2018-04-04T10:43:54.666Z,994.49
2018-04-04T10:44:54.670Z,994.46
2018-04-04T10:45:54.658Z,994.43
2018-04-04T10:46:54.653Z,994.47
2018-04-04T10:47:54.671Z,994.42
2018-04-04T10:48:54.649Z,994.41
2018-04-04T10:49:54.656Z,994.56
2018-04-04T10:50:54.652Z,994.46
2018-04-04T10:51:54.653Z,994.29
2018-04-04T10:52:54.650Z,994.33
2018-04-04T10:53:54.642Z,994.23
2018-04-04T10:54:54.642Z,994.27
2018-04-04T10:55:54.647Z,994.33
2018-04-04T10:56:54.644Z,994.30
2018-04-04T10:57:54.639Z,994.43
2018-04-04T10:58:54.639Z,994.33
2018-04-04T10:59:54.635Z,994.29
2018-04-04T11:00:54.635Z,994.38
2018-04-04T11:01:54.629Z,994.33
2018-04-04T11:02:54.639Z,994.34
2018-04-04T11:03:54.630Z,994.30
2018-04-04T11:04:54.626Z,994.37
2018-04-04T11:05:54.628Z,994.35
2018-04-04T11:06:54.631Z,994.24
2018-04-04T11:07:54.624Z,994.38
2018-04-04T11:08:54.617Z,994.38
2018-04-04T11:09:54.621Z,994.22
2018-04-04T11:10:54.623Z,994.16
2018-04-04T11:11:54.618Z,994.17
2018-04-04T11:12:54.613Z,994.19
2018-04-04T11:13:54.612Z,994.23
2018-04-04T11:14:54.612Z,994.25
2018-04-04T11:15:54.617Z,994.24
2018-04-04T11:16:54.610Z,994.26
2018-04-04T11:17:54.612Z,994.37
2018-04-04T11:18:54.632Z,994.18
2018-04-04T11:19:54.614Z,994.15
2018-04-04T11:20:54.603Z,994.12
2018-04-04T11:21:54.608Z,994.14
2018-04-04T11:22:54.606Z,994.13
2018-04-04T11:23:54.604Z,994.04
2018-04-04T11:24:54.604Z,994.06
2018-04-04T11:25:54.605Z,994.03
2018-04-04T11:26:54.604Z,994.01
2018-04-04T11:27:54.602Z,994.06
2018-04-04T11:28:54.610Z,994.03
2018-04-04T11:29:54.599Z,994.13
2018-04-04T11:30:54.596Z,994.02
2018-04-04T11:31:54.602Z,994.05
2018-04-04T11:32:54.594Z,994.03
2018-04-04T11:33:54.594Z,993.96
2018-04-04T11:34:54.597Z,994.00
2018-04-04T11:35:54.586Z,994.01
2018-04-04T11:36:54.586Z,994.10
2018-04-04T11:37:54.586Z,994.00
2018-04-04T11:38:54.584Z,994.04
2018-04-04T11:39:54.581Z,994.09
2018-04-04T11:40:54.590Z,994.08
2018-04-04T11:41:54.575Z,993.97
2018-04-04T11:42:54.584Z,993.90
2018-04-04T11:43:54.651Z,993.91
2018-04-04T11:44:54.596Z,994.13
2018-04-04T11:45:54.575Z,993.94
2018-04-04T11:46:54.572Z,993.87
2018-04-04T11:47:54.568Z,993.85
2018-04-04T11:48:54.568Z,993.90
2018-04-04T11:49:54.563Z,993.91
2018-04-04T11:50:54.561Z,993.96
2018-04-04T11:51:54.560Z,993.96
2018-04-04T11:52:54.562Z,993.95
2018-04-04T11:53:54.563Z,993.98
2018-04-04T11:54:54.554Z,993.96
2018-04-04T11:55:54.553Z,993.93
2018-04-04T11:56:54.553Z,993.91
2018-04-04T11:57:54.550Z,993.94
2018-04-04T11:58:54.542Z,993.92
2018-04-04T11:59:54.555Z,993.85
2018-04-04T12:00:54.546Z,993.94
2018-04-04T12:01:54.541Z,993.89
2018-04-04T12:02:54.535Z,993.90
2018-04-04T12:03:54.535Z,993.86
2018-04-04T12:04:54.530Z,993.97
2018-04-04T12:05:54.528Z,993.88
2018-04-04T12:06:54.527Z,993.89
2018-04-04T12:07:54.522Z,993.90
2018-04-04T12:08:54.514Z,993.92
2018-04-04T12:09:54.549Z,993.92
2018-04-04T12:10:54.519Z,993.84
2018-04-04T12:11:54.512Z,993.81
2018-04-04T12:12:54.505Z,993.88
2018-04-04T12:13:54.503Z,993.80
2018-04-04T12:14:54.495Z,993.86
2018-04-04T12:15:54.492Z,993.80
2018-04-04T12:16:54.489Z,993.82
2018-04-04T12:17:54.490Z,993.75
2018-04-04T12:18:54.484Z,993.88
2018-04-04T12:19:54.499Z,993.87
2018-04-04T12:20:54.477Z,993.78
2018-04-04T12:21:54.475Z,993.72
2018-04-04T12:22:54.471Z,993.70
2018-04-04T12:23:54.463Z,993.69
2018-04-04T12:24:54.462Z,993.71
2018-04-04T12:25:54.461Z,993.77
2018-04-04T12:26:54.479Z,993.84
2018-04-04T12:27:54.450Z,993.74
2018-04-04T12:28:54.443Z,993.79